sensor_id;sensor_type;location;lat;lon;timestamp;P1;durP1;ratioP1;P2;durP2;ratioP2
52306;SDS011;38249;48.920;12.882;2022-11-20T00:01:28;11.05;;;7.03;;
52306;SDS011;38249;48.920;12.882;2022-11-20T00:03:56;11.68;;;7.75;;
52306;SDS011;38249;48.920;12.882;2022-11-20T00:06:24;9.70;;;6.70;;
52306;SDS011;38249;48.920;12.882;2022-11-20T00:08:53;10.32;;;6.50;;
52306;SDS011;38249;48.920;12.882;2022-11-20T00:11:23;12.43;;;7.40;;
52306;SDS011;38249;48.920;12.882;2022-11-20T00:13:51;8.80;;;6.22;;
52306;SDS011;38249;48.920;12.882;2022-11-20T00:16:19;9.45;;;6.43;;
52306;SDS011;38249;48.920;12.882;2022-11-20T00:18:47;9.07;;;6.30;;
52306;SDS011;38249;48.920;12.882;2022-11-20T00:21:14;8.75;;;6.47;;
52306;SDS011;38249;48.920;12.882;2022-11-20T00:23:43;8.57;;;5.78;;
52306;SDS011;38249;48.920;12.882;2022-11-20T00:26:10;10.77;;;6.20;;
52306;SDS011;38249;48.920;12.882;2022-11-20T00:28:40;36.17;;;23.85;;
52306;SDS011;38249;48.920;12.882;2022-11-20T00:31:08;11.48;;;7.85;;
52306;SDS011;38249;48.920;12.882;2022-11-20T00:33:36;10.90;;;6.95;;
52306;SDS011;38249;48.920;12.882;2022-11-20T00:36:03;9.90;;;6.90;;
52306;SDS011;38249;48.920;12.882;2022-11-20T00:38:32;10.40;;;7.40;;
52306;SDS011;38249;48.920;12.882;2022-11-20T00:41:00;10.48;;;6.95;;
52306;SDS011;38249;48.920;12.882;2022-11-20T00:43:27;9.73;;;7.07;;
52306;SDS011;38249;48.920;12.882;2022-11-20T00:45:58;10.75;;;6.63;;
52306;SDS011;38249;48.920;12.882;2022-11-20T00:48:26;10.65;;;7.45;;
52306;SDS011;38249;48.920;12.882;2022-11-20T00:50:53;12.02;;;7.32;;
52306;SDS011;38249;48.920;12.882;2022-11-20T00:53:20;8.90;;;6.65;;
52306;SDS011;38249;48.920;12.882;2022-11-20T00:55:53;9.98;;;7.28;;
52306;SDS011;38249;48.920;12.882;2022-11-20T00:58:21;9.50;;;6.22;;
52306;SDS011;38249;48.920;12.882;2022-11-20T01:00:48;8.77;;;5.40;;
52306;SDS011;38249;48.920;12.882;2022-11-20T01:03:16;7.00;;;5.55;;
52306;SDS011;38249;48.920;12.882;2022-11-20T01:05:43;7.80;;;5.78;;
52306;SDS011;38249;48.920;12.882;2022-11-20T01:08:10;8.48;;;5.30;;
52306;SDS011;38249;48.920;12.882;2022-11-20T01:10:37;7.82;;;5.50;;
52306;SDS011;38249;48.920;12.882;2022-11-20T01:13:03;7.85;;;6.00;;
52306;SDS011;38249;48.920;12.882;2022-11-20T01:15:47;9.50;;;5.38;;
52306;SDS011;38249;48.920;12.882;2022-11-20T01:18:14;7.72;;;5.57;;
52306;SDS011;38249;48.920;12.882;2022-11-20T01:20:41;9.23;;;6.00;;
52306;SDS011;38249;48.920;12.882;2022-11-20T01:23:08;7.55;;;5.68;;
52306;SDS011;38249;48.920;12.882;2022-11-20T01:25:34;8.32;;;6.13;;
52306;SDS011;38249;48.920;12.882;2022-11-20T01:28:01;9.30;;;6.40;;
52306;SDS011;38249;48.920;12.882;2022-11-20T01:30:28;41.03;;;26.90;;
52306;SDS011;38249;48.920;12.882;2022-11-20T01:32:54;16.35;;;10.38;;
52306;SDS011;38249;48.920;12.882;2022-11-20T01:35:21;7.47;;;5.82;;
52306;SDS011;38249;48.920;12.882;2022-11-20T01:37:49;7.63;;;5.68;;
52306;SDS011;38249;48.920;12.882;2022-11-20T01:40:16;8.32;;;5.80;;
52306;SDS011;38249;48.920;12.882;2022-11-20T01:42:44;9.90;;;5.55;;
52306;SDS011;38249;48.920;12.882;2022-11-20T01:48:38;7.38;;;4.82;;
52306;SDS011;38249;48.920;12.882;2022-11-20T01:51:12;8.52;;;5.38;;
52306;SDS011;38249;48.920;12.882;2022-11-20T01:53:44;6.25;;;4.53;;
52306;SDS011;38249;48.920;12.882;2022-11-20T01:56:12;6.47;;;4.82;;
52306;SDS011;38249;48.920;12.882;2022-11-20T01:58:41;6.97;;;5.30;;
52306;SDS011;38249;48.920;12.882;2022-11-20T02:01:12;5.78;;;4.70;;
52306;SDS011;38249;48.920;12.882;2022-11-20T02:03:39;6.70;;;5.55;;
52306;SDS011;38249;48.920;12.882;2022-11-20T02:06:08;7.30;;;5.43;;
52306;SDS011;38249;48.920;12.882;2022-11-20T02:08:38;7.18;;;4.60;;
52306;SDS011;38249;48.920;12.882;2022-11-20T02:11:06;6.75;;;5.22;;
52306;SDS011;38249;48.920;12.882;2022-11-20T02:13:37;6.43;;;4.93;;
52306;SDS011;38249;48.920;12.882;2022-11-20T02:16:08;6.38;;;4.50;;
52306;SDS011;38249;48.920;12.882;2022-11-20T02:18:37;5.00;;;4.18;;
52306;SDS011;38249;48.920;12.882;2022-11-20T02:21:06;5.40;;;4.60;;
52306;SDS011;38249;48.920;12.882;2022-11-20T02:23:36;6.32;;;4.20;;
52306;SDS011;38249;48.920;12.882;2022-11-20T02:26:08;6.10;;;4.45;;
52306;SDS011;38249;48.920;12.882;2022-11-20T02:28:37;8.00;;;5.53;;
52306;SDS011;38249;48.920;12.882;2022-11-20T02:31:04;6.45;;;4.90;;
52306;SDS011;38249;48.920;12.882;2022-11-20T02:33:30;6.07;;;4.70;;
52306;SDS011;38249;48.920;12.882;2022-11-20T02:35:57;7.18;;;5.50;;
52306;SDS011;38249;48.920;12.882;2022-11-20T02:38:23;7.07;;;5.05;;
52306;SDS011;38249;48.920;12.882;2022-11-20T02:40:50;8.02;;;5.55;;
52306;SDS011;38249;48.920;12.882;2022-11-20T02:43:18;6.90;;;5.32;;
52306;SDS011;38249;48.920;12.882;2022-11-20T02:45:44;6.80;;;5.20;;
52306;SDS011;38249;48.920;12.882;2022-11-20T02:48:11;5.10;;;4.60;;
52306;SDS011;38249;48.920;12.882;2022-11-20T02:50:38;5.35;;;4.25;;
52306;SDS011;38249;48.920;12.882;2022-11-20T02:53:05;5.72;;;4.82;;
52306;SDS011;38249;48.920;12.882;2022-11-20T02:55:32;5.30;;;4.28;;
52306;SDS011;38249;48.920;12.882;2022-11-20T02:57:59;5.57;;;4.63;;
52306;SDS011;38249;48.920;12.882;2022-11-20T03:00:27;5.25;;;4.68;;
52306;SDS011;38249;48.920;12.882;2022-11-20T03:02:54;5.88;;;4.35;;
52306;SDS011;38249;48.920;12.882;2022-11-20T03:05:22;7.53;;;5.43;;
52306;SDS011;38249;48.920;12.882;2022-11-20T03:07:48;7.72;;;4.75;;
52306;SDS011;38249;48.920;12.882;2022-11-20T03:10:15;5.40;;;4.43;;
52306;SDS011;38249;48.920;12.882;2022-11-20T03:12:41;5.85;;;4.25;;
52306;SDS011;38249;48.920;12.882;2022-11-20T03:15:08;6.30;;;4.55;;
52306;SDS011;38249;48.920;12.882;2022-11-20T03:17:36;5.05;;;4.05;;
52306;SDS011;38249;48.920;12.882;2022-11-20T03:20:03;6.13;;;4.40;;
52306;SDS011;38249;48.920;12.882;2022-11-20T03:22:31;5.35;;;4.28;;
52306;SDS011;38249;48.920;12.882;2022-11-20T03:24:57;6.80;;;4.80;;
52306;SDS011;38249;48.920;12.882;2022-11-20T03:27:24;7.85;;;5.40;;
52306;SDS011;38249;48.920;12.882;2022-11-20T03:29:50;6.30;;;4.60;;
52306;SDS011;38249;48.920;12.882;2022-11-20T03:32:17;6.38;;;4.78;;
52306;SDS011;38249;48.920;12.882;2022-11-20T03:34:45;6.32;;;5.10;;
52306;SDS011;38249;48.920;12.882;2022-11-20T03:37:11;5.13;;;4.20;;
52306;SDS011;38249;48.920;12.882;2022-11-20T03:39:38;6.53;;;4.43;;
52306;SDS011;38249;48.920;12.882;2022-11-20T03:42:04;6.05;;;4.75;;
52306;SDS011;38249;48.920;12.882;2022-11-20T03:44:51;6.68;;;5.10;;
52306;SDS011;38249;48.920;12.882;2022-11-20T03:47:18;6.78;;;5.07;;
52306;SDS011;38249;48.920;12.882;2022-11-20T03:49:46;7.05;;;4.80;;
52306;SDS011;38249;48.920;12.882;2022-11-20T03:52:12;7.95;;;5.10;;
52306;SDS011;38249;48.920;12.882;2022-11-20T03:54:39;8.23;;;6.07;;
52306;SDS011;38249;48.920;12.882;2022-11-20T03:57:05;7.80;;;5.72;;
52306;SDS011;38249;48.920;12.882;2022-11-20T03:59:32;8.40;;;6.15;;
52306;SDS011;38249;48.920;12.882;2022-11-20T04:01:58;8.05;;;5.57;;
52306;SDS011;38249;48.920;12.882;2022-11-20T04:04:25;7.68;;;5.40;;
52306;SDS011;38249;48.920;12.882;2022-11-20T04:06:53;9.13;;;6.35;;
52306;SDS011;38249;48.920;12.882;2022-11-20T04:09:19;7.40;;;5.45;;
52306;SDS011;38249;48.920;12.882;2022-11-20T04:11:46;9.82;;;5.82;;
52306;SDS011;38249;48.920;12.882;2022-11-20T04:14:13;9.40;;;6.70;;
52306;SDS011;38249;48.920;12.882;2022-11-20T04:16:41;30.88;;;18.63;;
52306;SDS011;38249;48.920;12.882;2022-11-20T04:19:09;31.27;;;20.65;;
52306;SDS011;38249;48.920;12.882;2022-11-20T04:21:37;26.35;;;16.73;;
52306;SDS011;38249;48.920;12.882;2022-11-20T04:24:06;11.23;;;7.60;;
52306;SDS011;38249;48.920;12.882;2022-11-20T04:26:33;14.48;;;9.10;;
52306;SDS011;38249;48.920;12.882;2022-11-20T04:29:00;17.45;;;10.25;;
52306;SDS011;38249;48.920;12.882;2022-11-20T04:31:27;10.65;;;7.22;;
52306;SDS011;38249;48.920;12.882;2022-11-20T04:33:55;11.00;;;6.05;;
52306;SDS011;38249;48.920;12.882;2022-11-20T04:36:26;12.18;;;7.93;;
52306;SDS011;38249;48.920;12.882;2022-11-20T04:38:54;9.77;;;6.55;;
52306;SDS011;38249;48.920;12.882;2022-11-20T04:41:24;8.90;;;6.28;;
52306;SDS011;38249;48.920;12.882;2022-11-20T04:43:53;10.57;;;6.85;;
52306;SDS011;38249;48.920;12.882;2022-11-20T04:46:24;11.43;;;7.80;;
52306;SDS011;38249;48.920;12.882;2022-11-20T04:48:51;12.18;;;7.57;;
52306;SDS011;38249;48.920;12.882;2022-11-20T04:51:18;10.38;;;6.78;;
52306;SDS011;38249;48.920;12.882;2022-11-20T04:53:44;11.35;;;6.88;;
52306;SDS011;38249;48.920;12.882;2022-11-20T04:56:11;11.25;;;7.93;;
52306;SDS011;38249;48.920;12.882;2022-11-20T04:58:40;10.65;;;7.03;;
52306;SDS011;38249;48.920;12.882;2022-11-20T05:01:07;9.18;;;5.93;;
52306;SDS011;38249;48.920;12.882;2022-11-20T05:03:36;9.02;;;6.28;;
52306;SDS011;38249;48.920;12.882;2022-11-20T05:06:02;10.25;;;7.75;;
52306;SDS011;38249;48.920;12.882;2022-11-20T05:08:30;9.35;;;7.05;;
52306;SDS011;38249;48.920;12.882;2022-11-20T05:11:00;8.65;;;6.25;;
52306;SDS011;38249;48.920;12.882;2022-11-20T05:13:27;8.88;;;5.82;;
52306;SDS011;38249;48.920;12.882;2022-11-20T05:15:55;7.05;;;5.38;;
52306;SDS011;38249;48.920;12.882;2022-11-20T05:18:26;10.82;;;6.90;;
52306;SDS011;38249;48.920;12.882;2022-11-20T05:20:57;9.30;;;6.18;;
52306;SDS011;38249;48.920;12.882;2022-11-20T05:23:24;9.30;;;6.93;;
52306;SDS011;38249;48.920;12.882;2022-11-20T05:25:51;5.95;;;4.57;;
52306;SDS011;38249;48.920;12.882;2022-11-20T05:28:19;6.88;;;4.72;;
52306;SDS011;38249;48.920;12.882;2022-11-20T05:30:45;5.68;;;4.40;;
52306;SDS011;38249;48.920;12.882;2022-11-20T05:33:14;5.25;;;4.57;;
52306;SDS011;38249;48.920;12.882;2022-11-20T05:35:40;5.78;;;4.15;;
52306;SDS011;38249;48.920;12.882;2022-11-20T05:38:07;5.55;;;4.50;;
52306;SDS011;38249;48.920;12.882;2022-11-20T05:40:34;6.00;;;4.38;;
52306;SDS011;38249;48.920;12.882;2022-11-20T05:43:00;5.03;;;4.25;;
52306;SDS011;38249;48.920;12.882;2022-11-20T05:45:27;5.82;;;4.25;;
52306;SDS011;38249;48.920;12.882;2022-11-20T05:47:57;4.85;;;3.80;;
52306;SDS011;38249;48.920;12.882;2022-11-20T05:50:25;7.57;;;4.72;;
52306;SDS011;38249;48.920;12.882;2022-11-20T05:52:52;5.03;;;3.80;;
52306;SDS011;38249;48.920;12.882;2022-11-20T05:55:18;5.18;;;4.40;;
52306;SDS011;38249;48.920;12.882;2022-11-20T05:57:45;5.40;;;4.25;;
52306;SDS011;38249;48.920;12.882;2022-11-20T06:00:12;6.10;;;4.53;;
52306;SDS011;38249;48.920;12.882;2022-11-20T06:02:39;4.57;;;3.72;;
52306;SDS011;38249;48.920;12.882;2022-11-20T06:05:06;5.50;;;3.75;;
52306;SDS011;38249;48.920;12.882;2022-11-20T06:07:35;5.72;;;4.43;;
52306;SDS011;38249;48.920;12.882;2022-11-20T06:10:01;4.20;;;3.70;;
52306;SDS011;38249;48.920;12.882;2022-11-20T06:12:30;5.68;;;4.10;;
52306;SDS011;38249;48.920;12.882;2022-11-20T06:14:57;4.60;;;3.78;;
52306;SDS011;38249;48.920;12.882;2022-11-20T06:17:24;4.18;;;3.78;;
52306;SDS011;38249;48.920;12.882;2022-11-20T06:19:50;3.88;;;3.30;;
52306;SDS011;38249;48.920;12.882;2022-11-20T06:22:17;4.88;;;3.63;;
52306;SDS011;38249;48.920;12.882;2022-11-20T06:24:45;5.32;;;4.10;;
52306;SDS011;38249;48.920;12.882;2022-11-20T06:27:11;4.03;;;3.63;;
52306;SDS011;38249;48.920;12.882;2022-11-20T06:29:38;4.60;;;3.95;;
52306;SDS011;38249;48.920;12.882;2022-11-20T06:32:04;4.80;;;3.90;;
52306;SDS011;38249;48.920;12.882;2022-11-20T06:34:31;5.35;;;4.20;;
52306;SDS011;38249;48.920;12.882;2022-11-20T06:36:57;4.95;;;4.45;;
52306;SDS011;38249;48.920;12.882;2022-11-20T06:39:24;4.95;;;3.88;;
52306;SDS011;38249;48.920;12.882;2022-11-20T06:41:52;4.70;;;4.20;;
52306;SDS011;38249;48.920;12.882;2022-11-20T06:44:18;5.38;;;3.65;;
52306;SDS011;38249;48.920;12.882;2022-11-20T06:46:45;4.93;;;3.67;;
52306;SDS011;38249;48.920;12.882;2022-11-20T06:49:11;4.72;;;4.25;;
52306;SDS011;38249;48.920;12.882;2022-11-20T06:51:38;4.75;;;3.85;;
52306;SDS011;38249;48.920;12.882;2022-11-20T06:54:05;5.25;;;3.63;;
52306;SDS011;38249;48.920;12.882;2022-11-20T06:56:31;4.10;;;3.70;;
52306;SDS011;38249;48.920;12.882;2022-11-20T06:58:59;5.45;;;4.15;;
52306;SDS011;38249;48.920;12.882;2022-11-20T07:01:30;4.43;;;3.70;;
52306;SDS011;38249;48.920;12.882;2022-11-20T07:03:56;4.95;;;3.92;;
52306;SDS011;38249;48.920;12.882;2022-11-20T07:06:23;5.35;;;4.00;;
52306;SDS011;38249;48.920;12.882;2022-11-20T07:08:50;5.07;;;3.55;;
52306;SDS011;38249;48.920;12.882;2022-11-20T07:11:17;5.43;;;3.92;;
52306;SDS011;38249;48.920;12.882;2022-11-20T07:13:44;5.00;;;3.38;;
52306;SDS011;38249;48.920;12.882;2022-11-20T07:16:14;4.95;;;3.70;;
52306;SDS011;38249;48.920;12.882;2022-11-20T07:18:42;4.30;;;3.90;;
52306;SDS011;38249;48.920;12.882;2022-11-20T07:21:09;4.25;;;3.85;;
52306;SDS011;38249;48.920;12.882;2022-11-20T07:23:36;4.25;;;3.83;;
52306;SDS011;38249;48.920;12.882;2022-11-20T07:26:03;4.97;;;3.15;;
52306;SDS011;38249;48.920;12.882;2022-11-20T07:28:30;3.60;;;3.30;;
52306;SDS011;38249;48.920;12.882;2022-11-20T07:30:57;3.97;;;3.38;;
52306;SDS011;38249;48.920;12.882;2022-11-20T07:33:25;4.35;;;3.53;;
52306;SDS011;38249;48.920;12.882;2022-11-20T07:35:51;5.38;;;3.90;;
52306;SDS011;38249;48.920;12.882;2022-11-20T07:38:18;5.22;;;3.80;;
52306;SDS011;38249;48.920;12.882;2022-11-20T07:40:45;5.90;;;4.90;;
52306;SDS011;38249;48.920;12.882;2022-11-20T07:43:11;5.78;;;4.97;;
52306;SDS011;38249;48.920;12.882;2022-11-20T07:45:38;23.05;;;15.60;;
52306;SDS011;38249;48.920;12.882;2022-11-20T07:48:05;12.18;;;8.43;;
52306;SDS011;38249;48.920;12.882;2022-11-20T07:50:32;4.57;;;4.13;;
52306;SDS011;38249;48.920;12.882;2022-11-20T07:53:02;8.80;;;6.22;;
52306;SDS011;38249;48.920;12.882;2022-11-20T07:55:30;9.55;;;6.90;;
52306;SDS011;38249;48.920;12.882;2022-11-20T07:57:57;6.32;;;4.53;;
52306;SDS011;38249;48.920;12.882;2022-11-20T08:00:24;5.20;;;4.30;;
52306;SDS011;38249;48.920;12.882;2022-11-20T08:02:51;9.23;;;6.97;;
52306;SDS011;38249;48.920;12.882;2022-11-20T08:05:18;16.48;;;11.27;;
52306;SDS011;38249;48.920;12.882;2022-11-20T08:07:45;4.50;;;4.07;;
52306;SDS011;38249;48.920;12.882;2022-11-20T08:10:13;6.70;;;5.80;;
52306;SDS011;38249;48.920;12.882;2022-11-20T08:12:44;8.18;;;5.97;;
52306;SDS011;38249;48.920;12.882;2022-11-20T08:15:29;18.05;;;11.77;;
52306;SDS011;38249;48.920;12.882;2022-11-20T08:17:59;9.88;;;6.97;;
52306;SDS011;38249;48.920;12.882;2022-11-20T08:20:26;7.00;;;5.60;;
52306;SDS011;38249;48.920;12.882;2022-11-20T08:22:58;6.88;;;5.47;;
52306;SDS011;38249;48.920;12.882;2022-11-20T08:25:25;6.75;;;4.68;;
52306;SDS011;38249;48.920;12.882;2022-11-20T08:27:52;6.75;;;5.03;;
52306;SDS011;38249;48.920;12.882;2022-11-20T08:30:18;6.45;;;5.00;;
52306;SDS011;38249;48.920;12.882;2022-11-20T08:32:45;6.15;;;4.75;;
52306;SDS011;38249;48.920;12.882;2022-11-20T08:35:12;4.95;;;4.45;;
52306;SDS011;38249;48.920;12.882;2022-11-20T08:37:38;4.72;;;4.07;;
52306;SDS011;38249;48.920;12.882;2022-11-20T08:40:08;4.35;;;3.50;;
52306;SDS011;38249;48.920;12.882;2022-11-20T08:42:36;24.70;;;16.38;;
52306;SDS011;38249;48.920;12.882;2022-11-20T08:45:03;27.13;;;18.77;;
52306;SDS011;38249;48.920;12.882;2022-11-20T08:47:30;50.60;;;32.13;;
52306;SDS011;38249;48.920;12.882;2022-11-20T08:49:57;12.80;;;9.60;;
52306;SDS011;38249;48.920;12.882;2022-11-20T08:52:23;8.35;;;6.65;;
52306;SDS011;38249;48.920;12.882;2022-11-20T08:54:50;13.50;;;10.43;;
52306;SDS011;38249;48.920;12.882;2022-11-20T08:57:18;20.27;;;14.35;;
52306;SDS011;38249;48.920;12.882;2022-11-20T08:59:44;14.88;;;11.13;;
52306;SDS011;38249;48.920;12.882;2022-11-20T09:02:11;13.38;;;9.40;;
52306;SDS011;38249;48.920;12.882;2022-11-20T09:04:38;9.50;;;7.65;;
52306;SDS011;38249;48.920;12.882;2022-11-20T09:07:04;10.77;;;7.13;;
52306;SDS011;38249;48.920;12.882;2022-11-20T09:09:31;14.68;;;11.05;;
52306;SDS011;38249;48.920;12.882;2022-11-20T09:11:57;10.65;;;8.48;;
52306;SDS011;38249;48.920;12.882;2022-11-20T09:14:25;15.90;;;9.98;;
52306;SDS011;38249;48.920;12.882;2022-11-20T09:16:54;11.35;;;8.27;;
52306;SDS011;38249;48.920;12.882;2022-11-20T09:19:20;10.30;;;6.88;;
52306;SDS011;38249;48.920;12.882;2022-11-20T09:21:47;10.13;;;7.10;;
52306;SDS011;38249;48.920;12.882;2022-11-20T09:24:13;10.20;;;7.25;;
52306;SDS011;38249;48.920;12.882;2022-11-20T09:26:40;22.85;;;14.65;;
52306;SDS011;38249;48.920;12.882;2022-11-20T09:29:07;50.90;;;35.08;;
52306;SDS011;38249;48.920;12.882;2022-11-20T09:31:35;35.55;;;24.17;;
52306;SDS011;38249;48.920;12.882;2022-11-20T09:34:01;22.15;;;15.52;;
52306;SDS011;38249;48.920;12.882;2022-11-20T09:36:28;19.23;;;13.65;;
52306;SDS011;38249;48.920;12.882;2022-11-20T09:38:54;16.88;;;11.32;;
52306;SDS011;38249;48.920;12.882;2022-11-20T09:41:41;15.82;;;11.60;;
52306;SDS011;38249;48.920;12.882;2022-11-20T09:44:28;15.38;;;10.88;;
52306;SDS011;38249;48.920;12.882;2022-11-20T09:47:08;13.07;;;9.70;;
52306;SDS011;38249;48.920;12.882;2022-11-20T09:56:25;12.40;;;8.30;;
52306;SDS011;38249;48.920;12.882;2022-11-20T10:08:40;14.18;;;9.98;;
52306;SDS011;38249;48.920;12.882;2022-11-20T10:11:12;11.18;;;8.13;;
52306;SDS011;38249;48.920;12.882;2022-11-20T10:13:46;11.85;;;8.00;;
52306;SDS011;38249;48.920;12.882;2022-11-20T10:16:21;11.02;;;7.18;;
52306;SDS011;38249;48.920;12.882;2022-11-20T10:19:01;14.70;;;10.65;;
52306;SDS011;38249;48.920;12.882;2022-11-20T10:21:40;28.23;;;18.33;;
52306;SDS011;38249;48.920;12.882;2022-11-20T10:24:22;40.95;;;27.33;;
52306;SDS011;38249;48.920;12.882;2022-11-20T10:27:01;18.38;;;13.73;;
52306;SDS011;38249;48.920;12.882;2022-11-20T10:29:38;12.55;;;9.18;;
52306;SDS011;38249;48.920;12.882;2022-11-20T10:32:11;27.00;;;18.10;;
52306;SDS011;38249;48.920;12.882;2022-11-20T10:34:43;33.45;;;22.75;;
52306;SDS011;38249;48.920;12.882;2022-11-20T10:39:44;24.70;;;17.25;;
52306;SDS011;38249;48.920;12.882;2022-11-20T10:42:20;45.08;;;29.25;;
52306;SDS011;38249;48.920;12.882;2022-11-20T10:44:55;63.83;;;40.30;;
52306;SDS011;38249;48.920;12.882;2022-11-20T10:47:37;21.77;;;13.45;;
52306;SDS011;38249;48.920;12.882;2022-11-20T10:50:05;36.00;;;21.17;;
52306;SDS011;38249;48.920;12.882;2022-11-20T10:52:39;29.52;;;19.75;;
52306;SDS011;38249;48.920;12.882;2022-11-20T10:55:22;15.13;;;11.25;;
52306;SDS011;38249;48.920;12.882;2022-11-20T10:57:56;13.48;;;8.82;;
52306;SDS011;38249;48.920;12.882;2022-11-20T11:00:32;8.73;;;7.43;;
52306;SDS011;38249;48.920;12.882;2022-11-20T11:02:59;20.35;;;14.10;;
52306;SDS011;38249;48.920;12.882;2022-11-20T11:05:36;21.77;;;15.00;;
52306;SDS011;38249;48.920;12.882;2022-11-20T11:08:09;10.10;;;7.88;;
52306;SDS011;38249;48.920;12.882;2022-11-20T11:10:39;11.98;;;8.68;;
52306;SDS011;38249;48.920;12.882;2022-11-20T11:13:18;11.13;;;8.13;;
52306;SDS011;38249;48.920;12.882;2022-11-20T11:15:46;10.68;;;7.57;;
52306;SDS011;38249;48.920;12.882;2022-11-20T11:24:57;16.17;;;10.57;;
52306;SDS011;38249;48.920;12.882;2022-11-20T11:37:32;9.90;;;7.38;;
52306;SDS011;38249;48.920;12.882;2022-11-20T11:50:14;15.38;;;10.85;;
52306;SDS011;38249;48.920;12.882;2022-11-20T11:52:44;29.05;;;19.25;;
52306;SDS011;38249;48.920;12.882;2022-11-20T11:55:17;14.02;;;10.27;;
52306;SDS011;38249;48.920;12.882;2022-11-20T11:57:52;15.15;;;11.82;;
52306;SDS011;38249;48.920;12.882;2022-11-20T12:00:26;12.55;;;9.63;;
52306;SDS011;38249;48.920;12.882;2022-11-20T12:02:55;12.98;;;9.35;;
52306;SDS011;38249;48.920;12.882;2022-11-20T12:05:34;13.95;;;8.73;;
52306;SDS011;38249;48.920;12.882;2022-11-20T12:08:11;12.23;;;7.53;;
52306;SDS011;38249;48.920;12.882;2022-11-20T12:10:45;10.02;;;8.02;;
52306;SDS011;38249;48.920;12.882;2022-11-20T12:16:04;8.80;;;7.75;;
52306;SDS011;38249;48.920;12.882;2022-11-20T12:18:31;11.60;;;8.68;;
52306;SDS011;38249;48.920;12.882;2022-11-20T12:21:06;13.05;;;9.43;;
52306;SDS011;38249;48.920;12.882;2022-11-20T12:23:44;15.57;;;12.82;;
52306;SDS011;38249;48.920;12.882;2022-11-20T12:26:22;10.93;;;8.43;;
52306;SDS011;38249;48.920;12.882;2022-11-20T12:29:03;16.42;;;11.93;;
52306;SDS011;38249;48.920;12.882;2022-11-20T12:31:52;14.23;;;10.23;;
52306;SDS011;38249;48.920;12.882;2022-11-20T12:34:34;12.50;;;9.77;;
52306;SDS011;38249;48.920;12.882;2022-11-20T12:37:13;12.18;;;9.55;;
52306;SDS011;38249;48.920;12.882;2022-11-20T12:39:49;14.35;;;9.60;;
52306;SDS011;38249;48.920;12.882;2022-11-20T12:42:28;12.80;;;9.10;;
52306;SDS011;38249;48.920;12.882;2022-11-20T12:51:13;24.92;;;17.48;;
52306;SDS011;38249;48.920;12.882;2022-11-20T12:53:54;21.15;;;14.68;;
52306;SDS011;38249;48.920;12.882;2022-11-20T12:56:35;12.77;;;9.90;;
52306;SDS011;38249;48.920;12.882;2022-11-20T12:59:15;12.02;;;8.60;;
52306;SDS011;38249;48.920;12.882;2022-11-20T13:01:52;11.60;;;7.93;;
52306;SDS011;38249;48.920;12.882;2022-11-20T13:04:31;13.70;;;9.13;;
52306;SDS011;38249;48.920;12.882;2022-11-20T13:07:12;13.52;;;9.82;;
52306;SDS011;38249;48.920;12.882;2022-11-20T13:09:42;16.70;;;11.48;;
52306;SDS011;38249;48.920;12.882;2022-11-20T13:12:13;16.85;;;13.55;;
52306;SDS011;38249;48.920;12.882;2022-11-20T13:14:45;17.05;;;11.20;;
52306;SDS011;38249;48.920;12.882;2022-11-20T13:17:19;13.65;;;10.25;;
52306;SDS011;38249;48.920;12.882;2022-11-20T13:19:51;9.93;;;7.38;;
52306;SDS011;38249;48.920;12.882;2022-11-20T13:22:26;15.68;;;10.32;;
52306;SDS011;38249;48.920;12.882;2022-11-20T13:24:55;13.20;;;8.98;;
52306;SDS011;38249;48.920;12.882;2022-11-20T13:27:22;11.25;;;8.20;;
52306;SDS011;38249;48.920;12.882;2022-11-20T13:29:59;18.50;;;13.65;;
52306;SDS011;38249;48.920;12.882;2022-11-20T13:32:28;14.45;;;10.00;;
52306;SDS011;38249;48.920;12.882;2022-11-20T13:34:57;12.18;;;9.38;;
52306;SDS011;38249;48.920;12.882;2022-11-20T13:37:30;11.07;;;7.60;;
52306;SDS011;38249;48.920;12.882;2022-11-20T13:42:55;9.20;;;7.00;;
52306;SDS011;38249;48.920;12.882;2022-11-20T13:45:27;10.85;;;7.43;;
52306;SDS011;38249;48.920;12.882;2022-11-20T13:47:56;14.02;;;8.50;;
52306;SDS011;38249;48.920;12.882;2022-11-20T13:50:31;10.18;;;7.43;;
52306;SDS011;38249;48.920;12.882;2022-11-20T13:53:08;13.63;;;8.85;;
52306;SDS011;38249;48.920;12.882;2022-11-20T13:55:50;10.60;;;8.95;;
52306;SDS011;38249;48.920;12.882;2022-11-20T13:58:27;12.40;;;9.07;;
52306;SDS011;38249;48.920;12.882;2022-11-20T14:01:08;10.48;;;8.52;;
52306;SDS011;38249;48.920;12.882;2022-11-20T14:03:36;10.88;;;7.57;;
52306;SDS011;38249;48.920;12.882;2022-11-20T14:06:05;20.42;;;14.50;;
52306;SDS011;38249;48.920;12.882;2022-11-20T14:08:41;17.05;;;12.68;;
52306;SDS011;38249;48.920;12.882;2022-11-20T14:11:16;11.45;;;7.93;;
52306;SDS011;38249;48.920;12.882;2022-11-20T14:13:58;19.23;;;14.30;;
52306;SDS011;38249;48.920;12.882;2022-11-20T14:16:26;8.95;;;7.32;;
52306;SDS011;38249;48.920;12.882;2022-11-20T14:18:54;11.07;;;7.82;;
52306;SDS011;38249;48.920;12.882;2022-11-20T14:21:23;10.35;;;9.20;;
52306;SDS011;38249;48.920;12.882;2022-11-20T14:24:02;12.38;;;10.02;;
52306;SDS011;38249;48.920;12.882;2022-11-20T14:26:31;11.93;;;8.48;;
52306;SDS011;38249;48.920;12.882;2022-11-20T14:28:58;15.25;;;10.40;;
52306;SDS011;38249;48.920;12.882;2022-11-20T14:31:26;12.07;;;8.85;;
52306;SDS011;38249;48.920;12.882;2022-11-20T14:33:53;12.95;;;9.43;;
52306;SDS011;38249;48.920;12.882;2022-11-20T14:36:21;8.45;;;6.32;;
52306;SDS011;38249;48.920;12.882;2022-11-20T14:38:50;12.75;;;10.65;;
52306;SDS011;38249;48.920;12.882;2022-11-20T14:41:18;10.63;;;8.95;;
52306;SDS011;38249;48.920;12.882;2022-11-20T14:43:48;7.50;;;6.00;;
52306;SDS011;38249;48.920;12.882;2022-11-20T14:46:19;9.75;;;7.32;;
52306;SDS011;38249;48.920;12.882;2022-11-20T14:48:46;29.08;;;19.95;;
52306;SDS011;38249;48.920;12.882;2022-11-20T14:51:29;10.02;;;8.32;;
52306;SDS011;38249;48.920;12.882;2022-11-20T14:54:07;9.77;;;7.32;;
52306;SDS011;38249;48.920;12.882;2022-11-20T14:56:35;7.63;;;6.38;;
52306;SDS011;38249;48.920;12.882;2022-11-20T14:59:03;13.77;;;9.40;;
52306;SDS011;38249;48.920;12.882;2022-11-20T15:01:30;7.40;;;6.38;;
52306;SDS011;38249;48.920;12.882;2022-11-20T15:04:04;8.90;;;5.93;;
52306;SDS011;38249;48.920;12.882;2022-11-20T15:06:32;6.55;;;4.55;;
52306;SDS011;38249;48.920;12.882;2022-11-20T15:08:59;7.47;;;5.75;;
52306;SDS011;38249;48.920;12.882;2022-11-20T15:11:27;7.40;;;5.50;;
52306;SDS011;38249;48.920;12.882;2022-11-20T15:13:56;12.43;;;8.68;;
52306;SDS011;38249;48.920;12.882;2022-11-20T15:16:25;14.13;;;9.57;;
52306;SDS011;38249;48.920;12.882;2022-11-20T15:18:52;11.15;;;9.20;;
52306;SDS011;38249;48.920;12.882;2022-11-20T15:21:20;8.73;;;6.85;;
52306;SDS011;38249;48.920;12.882;2022-11-20T15:23:47;9.77;;;6.47;;
52306;SDS011;38249;48.920;12.882;2022-11-20T15:26:15;17.83;;;13.77;;
52306;SDS011;38249;48.920;12.882;2022-11-20T15:28:46;12.52;;;10.82;;
52306;SDS011;38249;48.920;12.882;2022-11-20T15:31:15;15.10;;;8.73;;
52306;SDS011;38249;48.920;12.882;2022-11-20T15:33:45;15.75;;;11.63;;
52306;SDS011;38249;48.920;12.882;2022-11-20T15:36:12;8.07;;;6.93;;
52306;SDS011;38249;48.920;12.882;2022-11-20T15:38:39;8.98;;;6.88;;
52306;SDS011;38249;48.920;12.882;2022-11-20T15:41:06;8.50;;;6.53;;